createdAt,value
2019-04-06T00:01:14.958Z,98468.36
2019-04-06T00:03:45.591Z,98466.88
2019-04-06T00:06:16.307Z,98465.14
2019-04-06T00:08:47.046Z,98461.83
2019-04-06T00:11:17.698Z,98453.00
2019-04-06T00:13:48.313Z,98457.56
2019-04-06T00:16:18.971Z,98452.00
2019-04-06T00:18:49.696Z,98461.92
2019-04-06T00:21:20.331Z,98465.23
2019-04-06T00:23:50.982Z,98449.59
2019-04-06T00:26:21.656Z,98451.04
2019-04-06T00:28:52.342Z,98458.23
2019-04-06T00:31:28.691Z,98459.22
2019-04-06T00:33:59.412Z,98455.05
2019-04-06T00:36:30.106Z,98450.45
2019-04-06T00:39:00.981Z,98455.89
2019-04-06T00:41:31.761Z,98459.63
2019-04-06T00:44:02.499Z,98458.98
2019-04-06T00:46:33.101Z,98459.39
2019-04-06T00:49:03.903Z,98449.41
2019-04-06T00:51:34.442Z,98451.10
2019-04-06T00:54:05.190Z,98451.70
2019-04-06T00:56:35.851Z,98448.21
2019-04-06T00:59:06.554Z,98448.67
2019-04-06T01:01:37.311Z,98443.22
2019-04-06T01:04:07.936Z,98443.97
2019-04-06T01:06:38.635Z,98448.41
2019-04-06T01:09:11.542Z,98448.95
2019-04-06T01:11:42.305Z,98450.95
2019-04-06T01:14:13.021Z,98456.09
2019-04-06T01:16:43.671Z,98448.45
2019-04-06T01:19:14.366Z,98447.86
2019-04-06T01:21:44.967Z,98451.00
2019-04-06T01:24:15.598Z,98450.86
2019-04-06T01:26:46.218Z,98449.81
2019-04-06T01:29:16.912Z,98458.77
2019-04-06T01:31:47.621Z,98452.50
2019-04-06T01:34:18.266Z,98448.91
2019-04-06T01:36:48.841Z,98453.19
2019-04-06T01:39:19.391Z,98454.08
2019-04-06T01:41:49.943Z,98457.47
2019-04-06T01:44:20.441Z,98455.44
2019-04-06T01:46:51.016Z,98454.23
2019-04-06T01:49:21.611Z,98454.14
2019-04-06T01:51:52.523Z,98448.38
2019-04-06T01:54:22.906Z,98446.79
2019-04-06T01:56:53.534Z,98449.30
2019-04-06T01:59:23.953Z,98443.23
2019-04-06T02:02:13.305Z,98454.14
2019-04-06T02:04:43.953Z,98454.03
2019-04-06T02:07:14.613Z,98451.33
2019-04-06T02:09:45.101Z,98452.42
2019-04-06T02:12:15.816Z,98453.05
2019-04-06T02:14:46.492Z,98450.95
2019-04-06T02:17:16.987Z,98450.00
2019-04-06T02:19:47.932Z,98455.08
2019-04-06T02:22:18.481Z,98450.87
2019-04-06T02:24:48.981Z,98453.86
2019-04-06T02:27:19.664Z,98448.66
2019-04-06T02:30:09.037Z,98453.40
2019-04-06T02:32:52.366Z,98463.53
2019-04-06T02:35:41.677Z,98458.66
2019-04-06T02:38:23.623Z,98464.61
2019-04-06T02:41:01.933Z,98454.77
2019-04-06T02:43:34.313Z,98460.75
2019-04-06T02:46:05.066Z,98465.00
2019-04-06T02:48:35.779Z,98457.36
2019-04-06T02:51:06.488Z,98460.52
2019-04-06T02:53:36.968Z,98461.47
2019-04-06T02:56:07.649Z,98449.89
2019-04-06T02:58:38.242Z,98454.27
2019-04-06T03:01:08.800Z,98459.72
2019-04-06T03:03:39.485Z,98459.78
2019-04-06T03:06:10.395Z,98456.70
2019-04-06T03:08:41.080Z,98449.89
2019-04-06T03:11:11.670Z,98457.13
2019-04-06T03:13:42.710Z,98451.67
2019-04-06T03:16:13.328Z,98455.57
2019-04-06T03:18:43.943Z,98453.26
2019-04-06T03:21:14.515Z,98451.02
2019-04-06T03:23:51.085Z,98451.97
2019-04-06T03:26:17.414Z,98464.39
2019-04-06T03:28:48.140Z,98460.63
2019-04-06T03:31:23.325Z,98458.59
2019-04-06T03:33:51.003Z,98467.92
2019-04-06T03:36:21.776Z,98464.05
2019-04-06T03:38:52.312Z,98465.34
2019-04-06T03:41:23.085Z,98470.14
2019-04-06T03:43:53.627Z,98473.45
2019-04-06T03:46:24.371Z,98474.25
2019-04-06T03:48:54.937Z,98466.78
2019-04-06T03:51:25.431Z,98471.83
2019-04-06T03:53:55.969Z,98467.78
2019-04-06T03:56:26.727Z,98468.48
2019-04-06T03:58:57.995Z,98468.16
2019-04-06T04:01:28.734Z,98467.63
2019-04-06T04:03:59.398Z,98465.11
2019-04-06T04:06:29.919Z,98466.89
2019-04-06T04:09:00.737Z,98460.56
2019-04-06T04:11:31.282Z,98464.91
2019-04-06T04:14:02.169Z,98465.87
2019-04-06T04:16:32.716Z,98471.33
2019-04-06T04:19:03.513Z,98465.33
2019-04-06T04:21:34.246Z,98466.00
2019-04-06T04:24:05.052Z,98470.17
2019-04-06T04:26:35.628Z,98468.17
2019-04-06T04:29:06.939Z,98469.14
2019-04-06T04:31:37.780Z,98462.02
2019-04-06T04:34:08.595Z,98468.39
2019-04-06T04:36:39.414Z,98473.83
2019-04-06T04:39:10.927Z,98472.55
2019-04-06T04:41:41.726Z,98470.77
2019-04-06T04:44:12.888Z,98471.25
2019-04-06T04:46:43.879Z,98478.52
2019-04-06T04:49:22.536Z,98481.53
2019-04-06T04:51:58.901Z,98481.92
2019-04-06T04:54:29.681Z,98488.45
2019-04-06T04:57:00.560Z,98486.40
2019-04-06T04:59:31.400Z,98493.88
2019-04-06T05:02:02.267Z,98490.64
2019-04-06T05:04:32.900Z,98491.86
2019-04-06T05:07:15.635Z,98498.61
2019-04-06T05:09:46.526Z,98493.82
2019-04-06T05:12:17.324Z,98496.59
2019-04-06T05:15:12.022Z,98494.05
2019-04-06T05:17:42.739Z,98495.55
2019-04-06T05:20:14.550Z,98511.44
2019-04-06T05:22:45.390Z,98513.90
2019-04-06T05:25:15.971Z,98519.27
2019-04-06T05:27:52.726Z,98524.03
2019-04-06T05:30:19.131Z,98515.75
2019-04-06T05:32:49.873Z,98522.93
2019-04-06T05:35:20.644Z,98519.62
2019-04-06T05:37:51.476Z,98518.19
2019-04-06T05:40:22.086Z,98522.95
2019-04-06T05:42:52.826Z,98526.12
2019-04-06T05:45:23.489Z,98525.84
2019-04-06T05:47:54.052Z,98524.13
2019-04-06T05:50:24.684Z,98525.70
2019-04-06T05:52:55.222Z,98520.20
2019-04-06T05:55:25.872Z,98530.89
2019-04-06T05:58:03.459Z,98529.32
2019-04-06T06:00:29.202Z,98524.13
2019-04-06T06:03:00.347Z,98528.42
2019-04-06T06:05:31.927Z,98532.64
2019-04-06T06:08:02.557Z,98534.66
2019-04-06T06:10:33.286Z,98539.83
2019-04-06T06:13:04.271Z,98553.50
2019-04-06T06:15:35.010Z,98563.80
2019-04-06T06:18:06.794Z,98561.06
2019-04-06T06:20:37.471Z,98561.87
2019-04-06T06:23:08.156Z,98562.41
2019-04-06T06:25:38.774Z,98557.23
2019-04-06T06:28:15.073Z,98563.50
2019-04-06T06:30:42.023Z,98563.47
2019-04-06T06:33:13.042Z,98554.39
2019-04-06T06:35:43.768Z,98571.33
2019-04-06T06:38:14.494Z,98568.34
2019-04-06T06:40:45.240Z,98565.08
2019-04-06T06:43:15.964Z,98566.09
2019-04-06T06:45:46.813Z,98574.70
2019-04-06T06:48:17.609Z,98566.32
2019-04-06T06:50:48.511Z,98571.22
2019-04-06T06:53:19.681Z,98554.92
2019-04-06T06:55:50.380Z,98560.98
2019-04-06T06:58:25.749Z,98556.13
2019-04-06T07:00:53.499Z,98554.14
2019-04-06T07:03:24.241Z,98560.87
2019-04-06T07:05:56.587Z,98568.05
2019-04-06T07:08:27.094Z,98566.49
2019-04-06T07:10:57.791Z,98561.92
2019-04-06T07:13:28.644Z,98560.61
2019-04-06T07:15:59.896Z,98564.80
2019-04-06T07:18:30.795Z,98568.48
2019-04-06T07:21:01.626Z,98580.41
2019-04-06T07:23:32.418Z,98566.96
2019-04-06T07:26:03.175Z,98569.82
2019-04-06T07:28:38.153Z,98568.92
2019-04-06T07:31:06.420Z,98569.10
2019-04-06T07:33:37.510Z,98563.00
2019-04-06T07:36:08.203Z,98560.66
2019-04-06T07:38:38.807Z,98574.34
2019-04-06T07:41:09.442Z,98573.25
2019-04-06T07:43:40.214Z,98570.95
2019-04-06T07:46:11.000Z,98566.92
2019-04-06T07:48:41.590Z,98579.05
2019-04-06T07:51:12.319Z,98566.42
2019-04-06T07:53:42.976Z,98550.77
2019-04-06T07:56:13.750Z,98567.80
2019-04-06T07:58:49.384Z,98562.55
2019-04-06T08:01:16.953Z,98568.69
2019-04-06T08:03:48.028Z,98564.02
2019-04-06T08:06:18.759Z,98560.03
2019-04-06T08:08:49.450Z,98565.64
2019-04-06T08:11:20.177Z,98557.80
2019-04-06T08:13:50.791Z,98553.31
2019-04-06T08:16:21.301Z,98567.77
2019-04-06T08:18:51.987Z,98569.52
2019-04-06T08:21:22.601Z,98568.24
2019-04-06T08:23:53.216Z,98564.31
2019-04-06T08:26:23.943Z,98572.25
2019-04-06T08:29:01.507Z,98573.38
2019-04-06T08:31:27.066Z,98580.09
2019-04-06T08:33:57.850Z,98578.28
2019-04-06T08:36:28.719Z,98568.13
2019-04-06T08:38:59.870Z,98563.90
2019-04-06T08:41:30.730Z,98578.34
2019-04-06T08:44:01.636Z,98580.98
2019-04-06T08:46:32.552Z,98584.53
2019-04-06T08:49:03.372Z,98577.91
2019-04-06T08:51:34.056Z,98571.01
2019-04-06T08:54:04.840Z,98573.73
2019-04-06T08:56:35.417Z,98578.69
2019-04-06T08:59:12.004Z,98570.02
2019-04-06T09:01:38.608Z,98580.28
2019-04-06T09:04:09.306Z,98580.65
2019-04-06T09:06:40.270Z,98575.90
2019-04-06T09:09:11.082Z,98584.45
2019-04-06T09:11:42.383Z,98584.71
2019-04-06T09:14:13.226Z,98576.61
2019-04-06T09:16:44.341Z,98577.22
2019-04-06T09:19:15.147Z,98573.42
2019-04-06T09:21:45.919Z,98572.66
2019-04-06T09:24:16.687Z,98581.20
2019-04-06T09:26:48.455Z,98581.58
2019-04-06T09:29:23.619Z,98573.63
2019-04-06T09:31:51.907Z,98583.70
2019-04-06T09:34:22.489Z,98580.27
2019-04-06T09:36:53.166Z,98575.74
2019-04-06T09:39:23.833Z,98583.14
2019-04-06T09:41:54.692Z,98570.52
2019-04-06T09:44:44.591Z,98578.48
2019-04-06T09:47:28.031Z,98566.80
2019-04-06T09:50:16.766Z,98559.72
2019-04-06T09:53:01.756Z,98566.72
2019-04-06T09:55:48.446Z,98562.06
2019-04-06T09:58:37.995Z,98575.02
2019-04-06T10:01:20.881Z,98562.10
2019-04-06T10:04:02.599Z,98552.73
2019-04-06T10:06:52.175Z,98557.20
2019-04-06T10:09:41.693Z,98550.50
2019-04-06T10:12:31.092Z,98552.76
2019-04-06T10:15:20.625Z,98549.18
2019-04-06T10:18:10.341Z,98561.58
2019-04-06T10:21:00.271Z,98560.41
2019-04-06T10:23:49.604Z,98563.36
2019-04-06T10:26:36.841Z,98562.00
2019-04-06T10:29:26.436Z,98561.64
2019-04-06T10:32:16.042Z,98553.16
2019-04-06T10:35:01.720Z,98549.45
2019-04-06T10:37:51.230Z,98555.41
2019-04-06T10:40:40.796Z,98540.86
2019-04-06T10:43:30.394Z,98533.25
2019-04-06T10:46:19.981Z,98539.95
2019-04-06T10:48:56.725Z,98523.89
2019-04-06T10:51:46.231Z,98525.64
2019-04-06T10:54:35.750Z,98526.62
2019-04-06T10:57:15.466Z,98527.44
2019-04-06T11:00:01.508Z,98522.06
2019-04-06T11:02:48.331Z,98516.65
2019-04-06T11:05:31.630Z,98525.28
2019-04-06T11:08:21.179Z,98505.44
2019-04-06T11:11:10.690Z,98520.41
2019-04-06T11:14:00.227Z,98514.50
2019-04-06T11:16:49.786Z,98517.78
2019-04-06T11:19:39.261Z,98516.03
2019-04-06T11:22:27.542Z,98505.11
2019-04-06T11:25:17.347Z,98494.82
2019-04-06T11:28:06.932Z,98510.73
2019-04-06T11:30:47.958Z,98503.27
2019-04-06T11:33:37.620Z,98501.09
2019-04-06T11:36:27.450Z,98508.11
2019-04-06T11:39:17.032Z,98501.09
2019-04-06T11:41:55.825Z,98490.47
2019-04-06T11:44:37.213Z,98495.88
2019-04-06T11:47:26.833Z,98491.28
2019-04-06T11:50:16.627Z,98478.74
2019-04-06T11:53:03.330Z,98479.14
2019-04-06T11:55:40.087Z,98477.37
2019-04-06T11:58:29.768Z,98473.88
2019-04-06T12:01:19.746Z,98473.43
2019-04-06T12:04:09.251Z,98481.79
2019-04-06T12:06:50.623Z,98477.38
2019-04-06T12:09:40.050Z,98478.23
2019-04-06T12:12:31.104Z,98484.36
2019-04-06T12:15:12.512Z,98474.63
2019-04-06T12:17:51.640Z,98485.67
2019-04-06T12:20:31.056Z,98481.52
2019-04-06T12:23:20.849Z,98485.67
2019-04-06T12:26:10.549Z,98475.36
2019-04-06T12:29:00.475Z,98479.16
2019-04-06T12:31:41.864Z,98470.52
2019-04-06T12:34:31.470Z,98479.52
2019-04-06T12:37:20.890Z,98475.68
2019-04-06T12:40:10.332Z,98476.30
2019-04-06T12:42:59.830Z,98480.41
2019-04-06T12:45:49.340Z,98478.77
2019-04-06T12:48:39.282Z,98470.38
2019-04-06T12:51:19.836Z,98464.31
2019-04-06T12:54:09.305Z,98460.38
2019-04-06T12:56:53.016Z,98454.34
2019-04-06T12:59:35.237Z,98458.07
2019-04-06T13:02:14.510Z,98455.46
2019-04-06T13:05:04.105Z,98458.65
2019-04-06T13:07:53.691Z,98454.48
2019-04-06T13:10:43.082Z,98461.97
2019-04-06T13:13:23.897Z,98455.13
2019-04-06T13:16:13.311Z,98445.52
2019-04-06T13:19:02.710Z,98455.65
2019-04-06T13:21:52.233Z,98460.02
2019-04-06T13:24:41.750Z,98456.97
2019-04-06T13:27:31.034Z,98454.29
2019-04-06T13:30:20.784Z,98455.88
2019-04-06T13:33:02.734Z,98458.56
2019-04-06T13:35:52.256Z,98450.20
2019-04-06T13:38:41.601Z,98442.41
2019-04-06T13:41:31.461Z,98437.91
2019-04-06T13:44:21.069Z,98441.42
2019-04-06T13:47:04.180Z,98439.98
2019-04-06T13:49:45.640Z,98443.77
2019-04-06T13:52:22.281Z,98445.60
2019-04-06T13:55:03.259Z,98442.12
2019-04-06T13:57:38.986Z,98439.55
2019-04-06T14:00:18.002Z,98440.94
2019-04-06T14:02:56.796Z,98437.39
2019-04-06T14:05:39.595Z,98435.78
2019-04-06T14:08:29.106Z,98437.61
2019-04-06T14:11:19.233Z,98438.08
2019-04-06T14:14:04.231Z,98454.60
2019-04-06T14:16:46.700Z,98439.26
2019-04-06T14:19:33.641Z,98440.16
2019-04-06T14:22:23.330Z,98437.14
2019-04-06T14:25:12.861Z,98433.79
2019-04-06T14:28:02.457Z,98423.16
2019-04-06T14:30:51.998Z,98429.52
2019-04-06T14:33:33.048Z,98435.53
2019-04-06T14:36:22.446Z,98428.47
2019-04-06T14:39:07.966Z,98425.25
2019-04-06T14:41:57.640Z,98425.73
2019-04-06T14:44:41.276Z,98424.52
2019-04-06T14:47:30.870Z,98421.53
2019-04-06T14:50:20.282Z,98422.56
2019-04-06T14:53:09.756Z,98435.19
2019-04-06T14:55:59.176Z,98421.64
2019-04-06T14:58:49.196Z,98430.34
2019-04-06T15:01:45.258Z,98422.88
2019-04-06T15:04:20.661Z,98430.63
2019-04-06T15:07:08.584Z,98424.57
2019-04-06T15:09:37.940Z,98428.75
2019-04-06T15:12:27.805Z,98432.17
2019-04-06T15:15:17.354Z,98432.16
2019-04-06T15:17:54.898Z,98421.24
2019-04-06T15:20:33.032Z,98425.81
2019-04-06T15:23:22.573Z,98429.53
2019-04-06T15:26:06.435Z,98429.44
2019-04-06T15:28:56.222Z,98441.13
2019-04-06T15:31:35.099Z,98425.22
2019-04-06T15:34:18.484Z,98441.11
2019-04-06T15:36:59.390Z,98433.73
2019-04-06T15:39:49.105Z,98439.08
2019-04-06T15:42:38.681Z,98445.64
2019-04-06T15:45:28.253Z,98443.06
2019-04-06T15:48:17.760Z,98447.22
2019-04-06T15:51:07.431Z,98448.69
2019-04-06T15:53:51.052Z,98446.45
2019-04-06T15:56:38.315Z,98444.08
2019-04-06T15:59:27.842Z,98449.89
2019-04-06T16:02:17.347Z,98441.36
2019-04-06T16:05:05.168Z,98452.42
2019-04-06T16:07:54.716Z,98458.45
2019-04-06T16:10:34.639Z,98452.19
2019-04-06T16:13:24.007Z,98451.73
2019-04-06T16:16:30.089Z,98451.25
2019-04-06T16:19:19.852Z,98450.30
2019-04-06T16:22:09.460Z,98446.72
2019-04-06T16:24:46.160Z,98447.86
2019-04-06T16:27:23.287Z,98450.73
2019-04-06T16:30:13.096Z,98457.56
2019-04-06T16:33:02.836Z,98460.00
2019-04-06T16:35:52.253Z,98457.19
2019-04-06T16:38:31.527Z,98469.65
2019-04-06T16:41:21.333Z,98461.28
2019-04-06T16:44:10.875Z,98468.13
2019-04-06T16:46:51.545Z,98473.17
2019-04-06T16:49:41.160Z,98475.17
2019-04-06T16:52:30.439Z,98471.05
2019-04-06T16:55:14.179Z,98470.83
2019-04-06T16:58:01.074Z,98477.66
2019-04-06T17:00:39.829Z,98467.86
2019-04-06T17:03:16.782Z,98466.33
2019-04-06T17:06:06.520Z,98467.91
2019-04-06T17:08:56.584Z,98465.52
2019-04-06T17:11:49.757Z,98469.29
2019-04-06T17:14:39.397Z,98463.36
2019-04-06T17:17:29.461Z,98467.88
2019-04-06T17:20:19.061Z,98470.03
2019-04-06T17:23:09.675Z,98469.41
2019-04-06T17:25:54.634Z,98466.04
2019-04-06T17:28:47.971Z,98467.98
2019-04-06T17:31:37.768Z,98467.83
2019-04-06T17:34:31.422Z,98467.75
2019-04-06T17:37:16.997Z,98469.13
2019-04-06T17:40:07.719Z,98481.63
2019-04-06T17:42:45.171Z,98483.52
2019-04-06T17:45:26.607Z,98481.23
2019-04-06T17:48:08.346Z,98483.77
2019-04-06T17:50:57.963Z,98482.95
2019-04-06T17:53:47.335Z,98481.70
2019-04-06T17:56:36.813Z,98491.20
2019-04-06T17:59:27.536Z,98494.80
2019-04-06T18:02:17.837Z,98498.99
2019-04-06T18:05:07.483Z,98498.59
2019-04-06T18:07:57.869Z,98495.61
2019-04-06T18:10:40.680Z,98507.28
2019-04-06T18:13:30.242Z,98512.38
2019-04-06T18:16:02.112Z,98515.84
2019-04-06T18:18:34.031Z,98517.13
2019-04-06T18:21:05.049Z,98524.38
2019-04-06T18:23:36.866Z,98525.06
2019-04-06T18:26:07.946Z,98528.07
2019-04-06T18:28:38.887Z,98528.81
2019-04-06T18:31:20.470Z,98531.52
2019-04-06T18:33:58.016Z,98533.80
2019-04-06T18:36:40.478Z,98530.16
2019-04-06T18:39:16.371Z,98543.96
2019-04-06T18:41:47.075Z,98545.63
2019-04-06T18:44:21.878Z,98548.31
2019-04-06T18:46:54.079Z,98546.65
2019-04-06T18:49:27.597Z,98550.31
2019-04-06T18:52:01.945Z,98552.84
2019-04-06T18:54:32.792Z,98551.14
2019-04-06T18:57:06.492Z,98559.81
2019-04-06T18:59:38.076Z,98553.47
2019-04-06T19:02:09.750Z,98556.78
2019-04-06T19:04:40.670Z,98564.29
2019-04-06T19:07:13.520Z,98557.30
2019-04-06T19:09:55.892Z,98555.96
2019-04-06T19:12:32.742Z,98553.59
2019-04-06T19:15:08.216Z,98555.63
2019-04-06T19:17:40.369Z,98558.42
2019-04-06T19:20:14.720Z,98555.50
2019-04-06T19:22:47.962Z,98555.53
2019-04-06T19:25:22.405Z,98554.45
2019-04-06T19:27:55.176Z,98559.61
2019-04-06T19:30:27.514Z,98553.37
2019-04-06T19:33:05.689Z,98551.80
2019-04-06T19:35:40.370Z,98555.76
2019-04-06T19:38:13.317Z,98546.20
2019-04-06T19:40:49.737Z,98544.93
2019-04-06T19:43:21.994Z,98540.70
2019-04-06T19:45:52.954Z,98536.91
2019-04-06T19:48:23.787Z,98539.80
2019-04-06T19:50:59.006Z,98541.85
2019-04-06T19:53:30.060Z,98543.34
2019-04-06T19:56:05.613Z,98538.73
2019-04-06T19:58:38.395Z,98535.48
2019-04-06T20:01:09.242Z,98546.36
2019-04-06T20:03:40.068Z,98535.46
2019-04-06T20:06:15.560Z,98543.45
2019-04-06T20:08:48.257Z,98537.05
2019-04-06T20:11:19.308Z,98529.17
2019-04-06T20:13:51.355Z,98520.38
2019-04-06T20:16:22.832Z,98522.24
2019-04-06T20:18:57.130Z,98522.78
2019-04-06T20:21:27.968Z,98519.15
2019-04-06T20:24:00.544Z,98523.03
2019-04-06T20:26:32.490Z,98527.36
2019-04-06T20:29:06.441Z,98522.89
2019-04-06T20:31:38.482Z,98524.72
2019-04-06T20:34:10.769Z,98518.44
2019-04-06T20:36:41.959Z,98526.28
2019-04-06T20:39:13.168Z,98523.50
2019-04-06T20:41:43.986Z,98521.19
2019-04-06T20:44:14.595Z,98516.20
2019-04-06T20:46:47.282Z,98522.13
2019-04-06T20:49:18.486Z,98514.91
2019-04-06T20:51:49.623Z,98519.19
2019-04-06T20:54:20.808Z,98514.58
2019-04-06T20:56:56.397Z,98516.84
2019-04-06T20:59:24.124Z,98515.81
2019-04-06T21:01:54.572Z,98515.55
2019-04-06T21:04:25.168Z,98523.63
2019-04-06T21:06:55.922Z,98522.00
2019-04-06T21:09:27.069Z,98522.73
2019-04-06T21:11:58.089Z,98516.67
2019-04-06T21:14:29.499Z,98518.26
2019-04-06T21:17:00.674Z,98523.13
2019-04-06T21:19:31.474Z,98517.17
2019-04-06T21:22:03.025Z,98517.11
2019-04-06T21:24:33.791Z,98516.28
2019-04-06T21:27:05.277Z,98515.91
2019-04-06T21:29:36.446Z,98512.70
2019-04-06T21:32:07.391Z,98513.66
2019-04-06T21:34:38.300Z,98515.02
2019-04-06T21:37:08.865Z,98507.83
2019-04-06T21:39:39.405Z,98507.86
2019-04-06T21:42:10.638Z,98509.98
2019-04-06T21:44:41.466Z,98509.88
2019-04-06T21:47:12.168Z,98510.64
2019-04-06T21:49:43.563Z,98511.35
2019-04-06T21:52:14.445Z,98509.53
2019-04-06T21:54:45.499Z,98499.66
2019-04-06T21:57:16.330Z,98505.16
2019-04-06T21:59:47.355Z,98498.95
2019-04-06T22:02:18.121Z,98500.43
2019-04-06T22:04:49.672Z,98508.67
2019-04-06T22:07:20.323Z,98512.91
2019-04-06T22:09:51.364Z,98511.88
2019-04-06T22:12:22.663Z,98508.17
2019-04-06T22:14:53.229Z,98507.78
2019-04-06T22:17:24.418Z,98498.44
2019-04-06T22:19:55.139Z,98497.03
2019-04-06T22:22:25.934Z,98498.39
2019-04-06T22:24:56.485Z,98496.78
2019-04-06T22:27:27.789Z,98492.13
2019-04-06T22:29:59.110Z,98489.83
2019-04-06T22:32:30.126Z,98487.00
2019-04-06T22:35:01.105Z,98486.03
2019-04-06T22:37:32.677Z,98484.41
2019-04-06T22:40:03.787Z,98489.71
2019-04-06T22:42:34.635Z,98481.39
2019-04-06T22:45:08.465Z,98481.64
2019-04-06T22:47:39.855Z,98487.39
2019-04-06T22:50:11.877Z,98481.25
2019-04-06T22:52:43.490Z,98481.25
2019-04-06T22:55:14.500Z,98475.47
2019-04-06T22:57:45.502Z,98477.27
2019-04-06T23:00:27.351Z,98474.11
2019-04-06T23:03:06.971Z,98470.73
2019-04-06T23:05:42.587Z,98469.70
2019-04-06T23:08:13.425Z,98467.98
2019-04-06T23:10:44.144Z,98466.38
2019-04-06T23:13:15.027Z,98470.10
2019-04-06T23:15:47.816Z,98469.33
2019-04-06T23:18:18.252Z,98468.73
2019-04-06T23:20:49.551Z,98465.25
2019-04-06T23:23:20.866Z,98471.34
2019-04-06T23:25:51.863Z,98466.52
2019-04-06T23:28:22.646Z,98461.86
2019-04-06T23:30:53.557Z,98469.34
2019-04-06T23:33:24.430Z,98462.64
2019-04-06T23:35:55.038Z,98458.80
2019-04-06T23:38:26.190Z,98461.13
2019-04-06T23:40:56.876Z,98456.02
2019-04-06T23:43:27.697Z,98461.39
2019-04-06T23:45:58.386Z,98456.23
2019-04-06T23:48:28.932Z,98463.08
2019-04-06T23:50:59.844Z,98462.69
2019-04-06T23:53:30.535Z,98455.20
2019-04-06T23:56:02.188Z,98455.34
2019-04-06T23:58:33.273Z,98460.11
